createdAt,value
2023-01-26T00:02:25.166Z,4.00
2023-01-26T00:04:53.199Z,4.00
2023-01-26T00:07:21.275Z,4.00
2023-01-26T00:09:49.292Z,4.00
2023-01-26T00:12:17.329Z,4.00
2023-01-26T00:14:52.669Z,4.00
2023-01-26T00:17:28.007Z,4.00
2023-01-26T00:19:58.139Z,4.00
2023-01-26T00:22:27.766Z,4.10
2023-01-26T00:24:55.815Z,4.10
2023-01-26T00:27:23.837Z,4.10
2023-01-26T00:29:53.353Z,4.00
2023-01-26T00:32:21.428Z,4.00
2023-01-26T00:34:49.433Z,4.10
2023-01-26T00:37:17.624Z,4.10
2023-01-26T00:39:45.687Z,4.10
2023-01-26T00:42:15.782Z,4.10
2023-01-26T00:44:44.215Z,4.10
2023-01-26T00:47:15.486Z,4.10
2023-01-26T00:49:43.545Z,4.10
2023-01-26T00:52:12.406Z,4.00
2023-01-26T00:54:40.781Z,4.00
2023-01-26T00:57:08.818Z,4.10
2023-01-26T00:59:36.953Z,4.10
2023-01-26T01:02:05.508Z,4.10
2023-01-26T01:04:34.964Z,4.20
2023-01-26T01:07:03.134Z,4.20
2023-01-26T01:09:31.510Z,4.20
2023-01-26T01:11:59.523Z,4.10
2023-01-26T01:14:28.724Z,4.10
2023-01-26T01:16:56.749Z,4.00
2023-01-26T01:19:24.796Z,4.10
2023-01-26T01:21:54.181Z,4.10
2023-01-26T01:24:22.382Z,4.10
2023-01-26T01:26:50.455Z,4.10
2023-01-26T01:29:18.836Z,4.10
2023-01-26T01:31:46.873Z,4.00
2023-01-26T01:34:14.907Z,4.10
2023-01-26T01:36:42.969Z,4.10
2023-01-26T01:39:12.944Z,4.10
2023-01-26T01:41:41.037Z,4.10
2023-01-26T01:44:17.655Z,4.10
2023-01-26T01:46:51.083Z,4.10
2023-01-26T01:49:24.016Z,4.00
2023-01-26T01:51:55.381Z,4.00
2023-01-26T01:54:33.314Z,4.10
2023-01-26T01:57:05.971Z,4.00
2023-01-26T01:59:34.503Z,4.10
2023-01-26T02:02:02.626Z,4.10
2023-01-26T02:04:30.962Z,4.10
2023-01-26T02:07:02.449Z,4.00
2023-01-26T02:09:51.707Z,4.00
2023-01-26T02:12:27.411Z,4.10
2023-01-26T02:14:55.805Z,4.10
2023-01-26T02:17:24.027Z,4.10
2023-01-26T02:19:59.397Z,4.00
2023-01-26T02:22:37.784Z,4.00
2023-01-26T02:25:13.955Z,4.00
2023-01-26T02:27:43.994Z,4.00
2023-01-26T02:30:14.000Z,4.00
2023-01-26T02:32:42.662Z,4.10
2023-01-26T02:35:10.984Z,4.10
2023-01-26T02:37:39.707Z,4.00
2023-01-26T02:40:14.263Z,4.00
2023-01-26T02:42:44.354Z,4.00
2023-01-26T02:45:15.505Z,4.00
2023-01-26T02:47:45.248Z,4.00
2023-01-26T02:50:14.094Z,3.90
2023-01-26T02:52:44.129Z,3.90
2023-01-26T02:55:23.150Z,4.00
2023-01-26T02:57:53.761Z,4.00
2023-01-26T03:00:25.734Z,3.90
2023-01-26T03:02:56.206Z,3.90
2023-01-26T03:05:26.082Z,3.90
2023-01-26T03:07:55.788Z,4.00
2023-01-26T03:10:27.047Z,3.90
2023-01-26T03:12:56.528Z,3.80
2023-01-26T03:15:43.621Z,3.80
2023-01-26T03:18:32.625Z,3.90
2023-01-26T03:21:19.090Z,3.80
2023-01-26T03:24:05.593Z,3.90
2023-01-26T03:26:52.624Z,4.00
2023-01-26T03:29:22.365Z,4.00
2023-01-26T03:31:51.237Z,4.00
2023-01-26T03:34:20.469Z,3.90
2023-01-26T03:36:49.424Z,3.90
2023-01-26T03:39:36.724Z,4.00
2023-01-26T03:42:23.980Z,3.90
2023-01-26T03:45:10.749Z,3.90
2023-01-26T03:47:58.859Z,3.90
2023-01-26T03:50:44.626Z,3.90
2023-01-26T03:53:35.388Z,4.00
2023-01-26T03:56:23.013Z,4.00
2023-01-26T03:58:55.280Z,4.00
2023-01-26T04:01:28.107Z,4.00
2023-01-26T04:04:17.587Z,4.00
2023-01-26T04:07:07.418Z,4.00
2023-01-26T04:09:37.667Z,4.00
2023-01-26T04:12:06.413Z,3.90
2023-01-26T04:14:56.806Z,3.90
2023-01-26T04:17:45.329Z,3.90
2023-01-26T04:20:32.835Z,3.90
2023-01-26T04:23:00.915Z,3.90
2023-01-26T04:25:29.609Z,3.90
2023-01-26T04:27:58.888Z,3.90
2023-01-26T04:30:27.002Z,3.90
2023-01-26T04:32:56.529Z,3.90
2023-01-26T04:35:25.129Z,4.00
2023-01-26T04:37:53.204Z,4.00
2023-01-26T04:40:21.544Z,4.00
2023-01-26T04:42:50.613Z,3.90
2023-01-26T04:45:18.875Z,3.90
2023-01-26T04:47:47.794Z,3.90
2023-01-26T04:50:19.261Z,3.90
2023-01-26T04:52:48.341Z,4.00
2023-01-26T04:55:17.277Z,3.90
2023-01-26T04:57:45.713Z,3.90
2023-01-26T05:00:14.597Z,3.80
2023-01-26T05:02:43.407Z,3.80
2023-01-26T05:05:12.047Z,3.90
2023-01-26T05:07:42.280Z,3.90
2023-01-26T05:10:15.258Z,4.00
2023-01-26T05:12:56.703Z,4.00
2023-01-26T05:15:35.510Z,4.00
2023-01-26T05:18:16.924Z,3.90
2023-01-26T05:20:48.185Z,3.90
2023-01-26T05:23:20.038Z,3.90
2023-01-26T05:26:06.819Z,3.90
2023-01-26T05:28:45.223Z,3.90
2023-01-26T05:31:13.412Z,3.90
2023-01-26T05:33:41.546Z,3.90
2023-01-26T05:36:11.552Z,3.90
2023-01-26T05:38:40.995Z,3.90
2023-01-26T05:41:09.221Z,3.80
2023-01-26T05:43:56.314Z,3.90
2023-01-26T05:46:43.689Z,3.90
2023-01-26T05:49:12.268Z,3.90
2023-01-26T05:51:40.334Z,3.90
2023-01-26T05:54:10.402Z,3.90
2023-01-26T05:56:38.546Z,3.80
2023-01-26T05:59:08.579Z,3.80
2023-01-26T06:01:36.874Z,3.80
2023-01-26T06:04:08.070Z,3.80
2023-01-26T06:06:42.479Z,3.80
2023-01-26T06:09:27.456Z,3.80
2023-01-26T06:12:17.226Z,3.80
2023-01-26T06:15:09.272Z,3.80
2023-01-26T06:17:43.916Z,3.80
2023-01-26T06:20:15.593Z,3.80
2023-01-26T06:22:51.800Z,3.80
2023-01-26T06:25:21.225Z,3.80
2023-01-26T06:27:49.302Z,3.80
2023-01-26T06:30:25.615Z,3.80
2023-01-26T06:32:55.292Z,3.70
2023-01-26T06:35:23.313Z,3.70
2023-01-26T06:37:53.093Z,3.70
2023-01-26T06:40:22.981Z,3.70
2023-01-26T06:42:51.454Z,3.70
2023-01-26T06:45:21.447Z,3.70
2023-01-26T06:47:52.390Z,3.70
2023-01-26T06:50:23.855Z,3.70
2023-01-26T06:52:55.591Z,3.70
2023-01-26T06:55:41.945Z,3.70
2023-01-26T06:58:29.037Z,3.70
2023-01-26T07:01:19.587Z,3.60
2023-01-26T07:03:49.592Z,3.70
2023-01-26T07:06:17.817Z,3.70
2023-01-26T07:08:46.160Z,3.60
2023-01-26T07:11:16.825Z,3.60
2023-01-26T07:13:44.874Z,3.60
2023-01-26T07:16:15.106Z,3.60
2023-01-26T07:18:43.207Z,3.60
2023-01-26T07:21:13.041Z,3.60
2023-01-26T07:23:41.132Z,3.70
2023-01-26T07:26:09.302Z,3.70
2023-01-26T07:28:40.173Z,3.60
2023-01-26T07:31:09.241Z,3.70
2023-01-26T07:33:37.323Z,3.60
2023-01-26T07:36:05.738Z,3.60
2023-01-26T07:38:34.300Z,3.60
2023-01-26T07:41:07.879Z,3.60
2023-01-26T07:43:38.623Z,3.60
2023-01-26T07:46:10.400Z,3.60
2023-01-26T07:48:38.504Z,3.50
2023-01-26T07:51:09.134Z,3.50
2023-01-26T07:53:39.472Z,3.50
2023-01-26T07:56:09.569Z,3.60
2023-01-26T07:58:39.161Z,3.60
2023-01-26T08:01:09.338Z,3.50
2023-01-26T08:03:38.023Z,3.60
2023-01-26T08:06:10.231Z,3.60
2023-01-26T08:08:40.920Z,3.50
2023-01-26T08:11:09.737Z,3.60
2023-01-26T08:13:39.590Z,3.60
2023-01-26T08:16:11.907Z,3.60
2023-01-26T08:18:40.457Z,3.60
2023-01-26T08:21:09.090Z,3.60
2023-01-26T08:23:37.220Z,3.70
2023-01-26T08:26:07.070Z,3.70
2023-01-26T08:28:36.705Z,3.70
2023-01-26T08:31:07.809Z,3.70
2023-01-26T08:33:36.245Z,3.70
2023-01-26T08:36:04.861Z,3.70
2023-01-26T08:38:33.312Z,3.70
2023-01-26T08:41:02.192Z,3.70
2023-01-26T08:43:30.379Z,3.70
2023-01-26T08:45:58.596Z,3.70
2023-01-26T08:48:28.420Z,3.70
2023-01-26T08:50:57.867Z,3.50
2023-01-26T08:53:26.678Z,3.50
2023-01-26T08:55:54.670Z,3.50
2023-01-26T08:58:22.692Z,3.60
2023-01-26T09:00:50.724Z,3.60
2023-01-26T09:03:19.335Z,3.60
2023-01-26T09:05:48.953Z,3.60
2023-01-26T09:08:16.980Z,3.60
2023-01-26T09:10:45.149Z,3.60
2023-01-26T09:13:13.219Z,3.60
2023-01-26T09:15:41.230Z,3.60
2023-01-26T09:18:10.411Z,3.60
2023-01-26T09:20:39.678Z,3.50
2023-01-26T09:23:10.151Z,3.60
2023-01-26T09:25:38.817Z,3.60
2023-01-26T09:28:07.676Z,3.60
2023-01-26T09:30:35.762Z,3.60
2023-01-26T09:33:05.819Z,3.50
2023-01-26T09:35:34.159Z,3.60
2023-01-26T09:38:02.164Z,3.60
2023-01-26T09:40:39.724Z,3.60
2023-01-26T09:43:22.530Z,3.60
2023-01-26T09:46:01.239Z,3.60
2023-01-26T09:48:38.431Z,3.60
2023-01-26T09:51:12.960Z,3.70
2023-01-26T09:53:46.760Z,3.70
2023-01-26T09:56:22.998Z,3.70
2023-01-26T09:58:56.646Z,3.60
2023-01-26T10:01:31.612Z,3.60
2023-01-26T10:04:05.098Z,3.60
2023-01-26T10:06:34.838Z,3.60
2023-01-26T10:09:16.939Z,3.70
2023-01-26T10:11:49.535Z,3.70
2023-01-26T10:14:23.670Z,3.70
2023-01-26T10:16:54.062Z,3.60
2023-01-26T10:19:33.597Z,3.60
2023-01-26T10:22:06.837Z,3.50
2023-01-26T10:24:35.387Z,3.50
2023-01-26T10:27:11.522Z,3.60
2023-01-26T10:29:39.496Z,3.60
2023-01-26T10:32:12.505Z,3.60
2023-01-26T10:34:42.289Z,3.70
2023-01-26T10:37:21.498Z,3.70
2023-01-26T10:40:00.960Z,3.70
2023-01-26T10:42:32.425Z,3.70
2023-01-26T10:45:02.596Z,3.70
2023-01-26T10:47:31.011Z,3.60
2023-01-26T10:50:20.208Z,3.60
2023-01-26T10:52:59.477Z,3.80
2023-01-26T10:55:28.615Z,3.70
2023-01-26T10:57:58.517Z,3.70
2023-01-26T11:00:29.760Z,3.70
2023-01-26T11:03:16.575Z,3.70
2023-01-26T11:05:47.886Z,3.80
2023-01-26T11:08:35.432Z,3.70
2023-01-26T11:11:04.689Z,3.70
2023-01-26T11:13:34.078Z,3.80
2023-01-26T11:16:06.633Z,3.80
2023-01-26T11:18:44.403Z,3.80
2023-01-26T11:21:17.015Z,3.80
2023-01-26T11:23:53.730Z,3.80
2023-01-26T11:26:54.390Z,3.70
2023-01-26T11:29:43.895Z,3.70
2023-01-26T11:32:21.959Z,3.70
2023-01-26T11:34:58.829Z,3.80
2023-01-26T11:37:40.679Z,3.90
2023-01-26T11:40:23.183Z,3.80
2023-01-26T11:43:06.971Z,3.90
2023-01-26T11:45:44.532Z,3.80
2023-01-26T11:48:21.763Z,3.80
2023-01-26T11:50:56.683Z,3.80
2023-01-26T11:53:53.958Z,3.80
2023-01-26T11:56:36.478Z,3.80
2023-01-26T11:59:13.279Z,3.80
2023-01-26T12:01:47.276Z,3.80
2023-01-26T12:04:19.749Z,3.90
2023-01-26T12:06:54.006Z,3.90
2023-01-26T12:09:32.638Z,3.80
2023-01-26T12:12:07.239Z,3.90
2023-01-26T12:14:41.956Z,3.90
2023-01-26T12:17:29.384Z,3.90
2023-01-26T12:20:05.450Z,4.00
2023-01-26T12:22:36.247Z,4.00
2023-01-26T12:25:19.791Z,4.00
2023-01-26T12:27:55.721Z,4.10
2023-01-26T12:30:35.425Z,4.00
2023-01-26T12:33:05.023Z,4.00
2023-01-26T12:35:46.800Z,4.00
2023-01-26T12:38:19.603Z,4.00
2023-01-26T12:40:58.524Z,4.00
2023-01-26T12:43:39.835Z,4.00
2023-01-26T12:46:10.034Z,4.10
2023-01-26T12:48:44.233Z,4.10
2023-01-26T12:51:17.439Z,4.10
2023-01-26T12:53:52.527Z,4.10
2023-01-26T12:56:25.185Z,4.20
2023-01-26T12:58:54.702Z,4.20
2023-01-26T13:01:26.057Z,4.20
2023-01-26T13:03:58.942Z,4.10
2023-01-26T13:06:28.546Z,4.10
2023-01-26T13:09:19.152Z,4.10
2023-01-26T13:11:50.216Z,4.20
2023-01-26T13:14:37.319Z,4.10
2023-01-26T13:17:57.039Z,4.20
2023-01-26T13:20:53.257Z,4.10
2023-01-26T13:23:52.663Z,4.20
2023-01-26T13:26:45.602Z,4.10
2023-01-26T13:29:32.802Z,4.10
2023-01-26T13:32:03.463Z,4.20
2023-01-26T13:34:37.597Z,4.10
2023-01-26T13:37:12.982Z,4.20
2023-01-26T13:39:45.274Z,4.10
2023-01-26T13:42:21.246Z,4.10
2023-01-26T13:44:55.304Z,4.10
2023-01-26T13:47:29.334Z,4.10
2023-01-26T13:49:57.652Z,4.20
2023-01-26T13:52:28.529Z,4.20
2023-01-26T13:54:57.741Z,4.10
2023-01-26T13:57:27.588Z,4.20
2023-01-26T13:59:58.999Z,4.20
2023-01-26T14:02:31.168Z,4.20
2023-01-26T14:05:00.343Z,4.10
2023-01-26T14:07:33.102Z,4.10
2023-01-26T14:10:02.704Z,4.10
2023-01-26T14:12:34.470Z,4.00
2023-01-26T14:15:05.956Z,4.10
2023-01-26T14:17:36.616Z,4.10
2023-01-26T14:20:20.227Z,4.10
2023-01-26T14:23:03.542Z,4.10
2023-01-26T14:25:31.837Z,4.10
2023-01-26T14:27:59.915Z,4.20
2023-01-26T14:30:30.101Z,4.20
2023-01-26T14:33:05.954Z,4.20
2023-01-26T14:35:34.270Z,4.20
2023-01-26T14:38:17.907Z,4.20
2023-01-26T14:40:46.692Z,4.20
2023-01-26T14:43:15.937Z,4.30
2023-01-26T14:45:48.369Z,4.30
2023-01-26T14:48:21.392Z,4.20
2023-01-26T14:50:49.724Z,4.20
2023-01-26T14:53:21.763Z,4.10
2023-01-26T14:55:51.462Z,4.10
2023-01-26T14:58:23.216Z,4.20
2023-01-26T15:00:52.025Z,4.10
2023-01-26T15:03:25.790Z,4.10
2023-01-26T15:06:17.834Z,4.20
2023-01-26T15:09:03.855Z,4.10
2023-01-26T15:11:54.830Z,4.10
2023-01-26T15:14:35.537Z,4.10
2023-01-26T15:17:04.150Z,4.00
2023-01-26T15:19:39.899Z,4.00
2023-01-26T15:22:20.299Z,4.10
2023-01-26T15:25:06.021Z,4.00
2023-01-26T15:27:38.214Z,4.00
2023-01-26T15:30:08.091Z,4.00
2023-01-26T15:32:49.776Z,4.00
2023-01-26T15:35:23.965Z,4.00
2023-01-26T15:38:01.334Z,3.90
2023-01-26T15:40:31.407Z,4.00
2023-01-26T15:43:11.621Z,4.00
2023-01-26T15:45:43.383Z,4.10
2023-01-26T15:48:11.400Z,4.00
2023-01-26T15:50:39.410Z,4.00
2023-01-26T15:53:07.452Z,4.10
2023-01-26T15:55:37.722Z,4.10
2023-01-26T15:58:05.715Z,4.10
2023-01-26T16:00:33.795Z,4.00
2023-01-26T16:03:07.546Z,3.90
2023-01-26T16:05:35.557Z,4.00
2023-01-26T16:08:03.563Z,4.00
2023-01-26T16:10:31.581Z,4.00
2023-01-26T16:13:00.954Z,4.00
2023-01-26T16:15:39.675Z,4.00
2023-01-26T16:18:07.715Z,4.00
2023-01-26T16:20:38.804Z,4.00
2023-01-26T16:23:07.823Z,4.00
2023-01-26T16:25:35.834Z,3.90
2023-01-26T16:28:05.176Z,3.90
2023-01-26T16:30:33.208Z,3.90
2023-01-26T16:33:03.137Z,4.00
2023-01-26T16:35:31.365Z,4.00
2023-01-26T16:37:59.446Z,4.00
2023-01-26T16:40:27.563Z,3.90
2023-01-26T16:42:55.661Z,3.90
2023-01-26T16:45:27.627Z,4.00
2023-01-26T16:47:59.737Z,3.90
2023-01-26T16:50:29.289Z,3.90
2023-01-26T16:53:00.273Z,3.90
2023-01-26T16:55:30.194Z,3.90
2023-01-26T16:57:59.656Z,4.00
2023-01-26T17:00:31.266Z,4.00
2023-01-26T17:02:59.806Z,4.00
2023-01-26T17:05:29.867Z,3.90
2023-01-26T17:07:59.400Z,3.90
2023-01-26T17:10:27.390Z,3.90
2023-01-26T17:12:55.399Z,3.90
2023-01-26T17:15:24.535Z,3.90
2023-01-26T17:17:53.862Z,3.90
2023-01-26T17:20:22.195Z,3.90
2023-01-26T17:22:50.250Z,3.90
2023-01-26T17:25:19.094Z,3.90
2023-01-26T17:27:49.784Z,4.00
2023-01-26T17:30:18.711Z,3.90
2023-01-26T17:32:46.755Z,3.90
2023-01-26T17:35:16.358Z,3.90
2023-01-26T17:37:44.417Z,3.90
2023-01-26T17:40:13.449Z,4.00
2023-01-26T17:42:41.523Z,4.00
2023-01-26T17:45:11.107Z,3.90
2023-01-26T17:47:39.659Z,3.90
2023-01-26T17:50:08.672Z,3.90
2023-01-26T17:52:38.192Z,3.90
2023-01-26T17:55:07.288Z,3.90
2023-01-26T17:57:35.559Z,3.90
2023-01-26T18:00:06.151Z,3.90
2023-01-26T18:02:38.196Z,3.90
2023-01-26T18:05:07.237Z,3.90
2023-01-26T18:07:35.669Z,3.90
2023-01-26T18:10:06.253Z,4.00
2023-01-26T18:12:34.619Z,4.00
2023-01-26T18:15:02.635Z,4.00
2023-01-26T18:17:30.655Z,4.00
2023-01-26T18:19:58.735Z,4.00
2023-01-26T18:22:26.713Z,4.00
2023-01-26T18:24:54.705Z,4.00
2023-01-26T18:27:24.117Z,4.00
2023-01-26T18:29:52.123Z,4.00
2023-01-26T18:32:20.464Z,4.00
2023-01-26T18:34:48.479Z,4.00
2023-01-26T18:37:16.521Z,4.10
2023-01-26T18:39:44.595Z,4.00
2023-01-26T18:42:12.676Z,3.90
2023-01-26T18:44:42.078Z,3.90
2023-01-26T18:47:10.089Z,3.90
2023-01-26T18:49:38.123Z,4.00
2023-01-26T18:52:06.208Z,4.00
2023-01-26T18:54:34.328Z,3.90
2023-01-26T18:57:02.366Z,3.90
2023-01-26T18:59:30.568Z,3.90
2023-01-26T19:02:00.317Z,4.00
2023-01-26T19:04:28.388Z,4.00
2023-01-26T19:06:56.457Z,4.00
2023-01-26T19:09:24.608Z,4.00
2023-01-26T19:11:52.656Z,4.00
2023-01-26T19:14:20.921Z,4.00
2023-01-26T19:16:49.206Z,4.00
2023-01-26T19:19:18.638Z,3.90
2023-01-26T19:21:46.867Z,4.00
2023-01-26T19:24:15.164Z,4.00
2023-01-26T19:26:43.253Z,4.00
2023-01-26T19:29:12.045Z,3.90
2023-01-26T19:31:40.157Z,3.90
2023-01-26T19:34:13.142Z,4.00
2023-01-26T19:36:42.683Z,4.00
2023-01-26T19:39:13.635Z,4.00
2023-01-26T19:41:41.997Z,4.00
2023-01-26T19:44:10.088Z,4.00
2023-01-26T19:46:38.139Z,3.90
2023-01-26T19:49:08.535Z,4.00
2023-01-26T19:51:36.548Z,4.00
2023-01-26T19:54:06.127Z,4.00
2023-01-26T19:56:36.191Z,4.00
2023-01-26T19:59:06.013Z,4.00
2023-01-26T20:01:34.443Z,4.00
2023-01-26T20:04:05.000Z,4.00
2023-01-26T20:06:35.014Z,3.90
2023-01-26T20:09:05.414Z,3.90
2023-01-26T20:11:34.004Z,4.00
2023-01-26T20:14:03.908Z,4.00
2023-01-26T20:16:34.150Z,4.00
2023-01-26T20:19:02.685Z,4.00
2023-01-26T20:21:32.136Z,3.90
2023-01-26T20:24:05.724Z,4.00
2023-01-26T20:26:36.474Z,3.90
2023-01-26T20:29:05.100Z,4.00
2023-01-26T20:31:33.801Z,4.00
2023-01-26T20:34:04.627Z,4.00
2023-01-26T20:36:34.174Z,4.00
2023-01-26T20:39:02.573Z,4.00
2023-01-26T20:41:32.594Z,4.00
2023-01-26T20:44:04.421Z,4.00
2023-01-26T20:46:34.320Z,4.00
2023-01-26T20:49:02.906Z,3.90
2023-01-26T20:51:33.884Z,4.00
2023-01-26T20:54:02.429Z,4.00
2023-01-26T20:56:30.867Z,4.00
2023-01-26T20:58:59.230Z,4.00
2023-01-26T21:01:28.646Z,3.90
2023-01-26T21:03:56.761Z,4.00
2023-01-26T21:06:26.042Z,4.00
2023-01-26T21:08:55.731Z,4.00
2023-01-26T21:11:26.077Z,3.90
2023-01-26T21:13:55.960Z,3.90
2023-01-26T21:16:24.934Z,4.00
2023-01-26T21:18:54.710Z,4.00
2023-01-26T21:21:23.582Z,4.00
2023-01-26T21:23:52.216Z,4.00
2023-01-26T21:26:22.707Z,4.00
2023-01-26T21:28:52.451Z,4.00
2023-01-26T21:31:21.741Z,4.10
2023-01-26T21:33:51.089Z,4.10
2023-01-26T21:36:21.961Z,4.10
2023-01-26T21:38:52.020Z,4.00
2023-01-26T21:41:39.272Z,4.00
2023-01-26T21:44:08.866Z,4.00
2023-01-26T21:46:37.254Z,4.00
2023-01-26T21:49:06.073Z,4.00
2023-01-26T21:51:53.765Z,4.10
2023-01-26T21:54:21.990Z,4.10
2023-01-26T21:56:50.054Z,4.10
2023-01-26T21:59:18.432Z,4.10
2023-01-26T22:01:48.312Z,4.10
2023-01-26T22:04:18.942Z,4.00
2023-01-26T22:06:48.607Z,4.10
2023-01-26T22:09:17.907Z,4.10
2023-01-26T22:11:46.268Z,4.10
2023-01-26T22:14:16.832Z,4.10
2023-01-26T22:16:44.937Z,4.10
2023-01-26T22:19:13.295Z,4.10
2023-01-26T22:21:41.552Z,4.10
2023-01-26T22:24:12.340Z,4.10
2023-01-26T22:26:40.742Z,4.10
2023-01-26T22:29:09.221Z,4.10
2023-01-26T22:31:37.324Z,4.10
2023-01-26T22:34:05.455Z,4.10
2023-01-26T22:36:33.685Z,4.20
2023-01-26T22:39:01.774Z,4.10
2023-01-26T22:41:31.829Z,4.10
2023-01-26T22:44:01.177Z,4.10
2023-01-26T22:46:31.002Z,4.10
2023-01-26T22:49:00.370Z,4.10
2023-01-26T22:51:30.563Z,4.10
2023-01-26T22:53:59.832Z,4.10
2023-01-26T22:56:28.399Z,4.10
2023-01-26T22:59:00.471Z,4.10
2023-01-26T23:01:30.172Z,4.10
2023-01-26T23:03:58.945Z,4.10
2023-01-26T23:06:27.554Z,4.10
2023-01-26T23:08:55.822Z,4.10
2023-01-26T23:11:26.011Z,4.10
2023-01-26T23:13:55.803Z,4.10
2023-01-26T23:16:26.402Z,4.10
2023-01-26T23:18:56.143Z,4.10
2023-01-26T23:21:25.209Z,4.10
2023-01-26T23:23:53.711Z,4.10
2023-01-26T23:26:22.220Z,4.20
2023-01-26T23:28:50.523Z,4.20
2023-01-26T23:31:19.757Z,4.20
2023-01-26T23:33:49.574Z,4.10
2023-01-26T23:36:17.601Z,4.20
2023-01-26T23:38:46.303Z,4.20
2023-01-26T23:41:15.648Z,4.20
2023-01-26T23:43:43.859Z,4.20
2023-01-26T23:46:12.689Z,4.20
2023-01-26T23:48:40.832Z,4.20
2023-01-26T23:51:12.315Z,4.20
2023-01-26T23:53:40.449Z,4.20
2023-01-26T23:56:10.607Z,4.20
2023-01-26T23:58:38.986Z,4.20
